sensor_id;sensor_type;location;lat;lon;timestamp;pressure;altitude;pressure_sealevel;temperature;humidity
62592;BME280;48659;41.622;2.276;2023-09-08T00:01:09;100019.77;;;21.17;46.00
62592;BME280;48659;41.622;2.276;2023-09-08T00:03:37;100017.97;;;20.42;46.85
62592;BME280;48659;41.622;2.276;2023-09-08T00:06:11;100009.89;;;21.63;44.85
62592;BME280;48659;41.622;2.276;2023-09-08T00:08:38;100013.68;;;20.34;47.13
62592;BME280;48659;41.622;2.276;2023-09-08T00:11:05;100012.51;;;19.99;47.37
62592;BME280;48659;41.622;2.276;2023-09-08T00:13:33;100012.76;;;19.36;48.20
62592;BME280;48659;41.622;2.276;2023-09-08T00:16:01;100006.24;;;20.81;45.96
62592;BME280;48659;41.622;2.276;2023-09-08T00:18:29;100003.45;;;20.93;45.28
62592;BME280;48659;41.622;2.276;2023-09-08T00:20:57;100003.39;;;21.54;44.76
62592;BME280;48659;41.622;2.276;2023-09-08T00:23:24;100002.51;;;21.48;44.18
62592;BME280;48659;41.622;2.276;2023-09-08T00:25:52;100003.69;;;21.58;43.84
62592;BME280;48659;41.622;2.276;2023-09-08T00:28:19;99996.72;;;21.42;44.10
62592;BME280;48659;41.622;2.276;2023-09-08T00:30:47;99996.93;;;20.90;44.63
62592;BME280;48659;41.622;2.276;2023-09-08T00:33:15;99995.76;;;22.27;42.64
62592;BME280;48659;41.622;2.276;2023-09-08T00:35:44;99993.25;;;22.49;41.87
62592;BME280;48659;41.622;2.276;2023-09-08T00:38:12;99996.87;;;21.77;43.46
62592;BME280;48659;41.622;2.276;2023-09-08T00:40:40;99997.38;;;21.21;44.27
62592;BME280;48659;41.622;2.276;2023-09-08T00:43:11;99998.69;;;21.45;44.29
62592;BME280;48659;41.622;2.276;2023-09-08T00:45:42;100001.63;;;21.21;44.51
62592;BME280;48659;41.622;2.276;2023-09-08T00:48:10;100003.73;;;21.20;44.22
62592;BME280;48659;41.622;2.276;2023-09-08T00:50:38;100007.52;;;21.43;43.77
62592;BME280;48659;41.622;2.276;2023-09-08T00:53:06;100003.18;;;22.36;42.34
62592;BME280;48659;41.622;2.276;2023-09-08T00:55:35;100001.84;;;22.40;42.27
62592;BME280;48659;41.622;2.276;2023-09-08T00:58:03;100001.35;;;22.13;43.04
62592;BME280;48659;41.622;2.276;2023-09-08T01:00:33;99999.41;;;21.67;43.57
62592;BME280;48659;41.622;2.276;2023-09-08T01:03:01;99995.09;;;21.87;43.20
62592;BME280;48659;41.622;2.276;2023-09-08T01:05:29;99990.15;;;22.20;42.65
62592;BME280;48659;41.622;2.276;2023-09-08T01:07:56;100000.36;;;18.80;48.26
62592;BME280;48659;41.622;2.276;2023-09-08T01:10:24;99992.11;;;20.29;45.58
62592;BME280;48659;41.622;2.276;2023-09-08T01:12:52;99990.04;;;20.73;45.32
62592;BME280;48659;41.622;2.276;2023-09-08T01:15:20;99989.35;;;20.17;46.42
62592;BME280;48659;41.622;2.276;2023-09-08T01:17:47;99984.63;;;20.33;46.37
62592;BME280;48659;41.622;2.276;2023-09-08T01:20:19;99982.98;;;21.11;44.51
62592;BME280;48659;41.622;2.276;2023-09-08T01:23:02;99989.08;;;17.99;50.46
62592;BME280;48659;41.622;2.276;2023-09-08T01:25:31;99989.48;;;18.23;50.10
62592;BME280;48659;41.622;2.276;2023-09-08T01:28:01;99996.32;;;18.97;49.29
62592;BME280;48659;41.622;2.276;2023-09-08T01:30:40;99990.03;;;18.07;51.31
62592;BME280;48659;41.622;2.276;2023-09-08T01:33:07;99987.76;;;18.52;49.92
62592;BME280;48659;41.622;2.276;2023-09-08T01:35:35;99988.00;;;17.83;50.97
62592;BME280;48659;41.622;2.276;2023-09-08T01:38:11;99979.49;;;20.39;46.37
62592;BME280;48659;41.622;2.276;2023-09-08T01:40:38;99985.39;;;19.87;46.55
62592;BME280;48659;41.622;2.276;2023-09-08T01:43:11;99978.52;;;20.47;45.37
62592;BME280;48659;41.622;2.276;2023-09-08T01:45:39;99981.71;;;18.71;47.71
62592;BME280;48659;41.622;2.276;2023-09-08T01:48:10;99976.40;;;17.95;49.33
62592;BME280;48659;41.622;2.276;2023-09-08T01:50:37;99969.39;;;20.22;45.76
62592;BME280;48659;41.622;2.276;2023-09-08T01:53:10;99965.91;;;20.30;45.45
62592;BME280;48659;41.622;2.276;2023-09-08T01:55:38;99968.37;;;19.61;46.37
62592;BME280;48659;41.622;2.276;2023-09-08T01:58:05;99965.63;;;20.42;45.12
62592;BME280;48659;41.622;2.276;2023-09-08T02:00:32;99965.95;;;19.85;45.38
62592;BME280;48659;41.622;2.276;2023-09-08T02:03:00;99964.23;;;20.36;44.97
62592;BME280;48659;41.622;2.276;2023-09-08T02:05:27;99964.43;;;20.21;44.83
62592;BME280;48659;41.622;2.276;2023-09-08T02:07:54;99964.68;;;20.08;45.30
62592;BME280;48659;41.622;2.276;2023-09-08T02:10:21;99963.00;;;19.65;46.06
62592;BME280;48659;41.622;2.276;2023-09-08T02:12:49;99967.21;;;20.85;44.40
62592;BME280;48659;41.622;2.276;2023-09-08T02:15:17;99967.85;;;20.45;44.82
62592;BME280;48659;41.622;2.276;2023-09-08T02:17:44;99970.88;;;20.38;44.77
62592;BME280;48659;41.622;2.276;2023-09-08T02:20:11;99971.86;;;20.26;45.17
62592;BME280;48659;41.622;2.276;2023-09-08T02:22:38;99971.53;;;21.20;43.38
62592;BME280;48659;41.622;2.276;2023-09-08T02:25:06;99972.00;;;20.76;43.94
62592;BME280;48659;41.622;2.276;2023-09-08T02:27:34;99973.49;;;21.45;42.68
62592;BME280;48659;41.622;2.276;2023-09-08T02:30:08;99974.69;;;20.17;44.68
62592;BME280;48659;41.622;2.276;2023-09-08T02:32:35;99973.19;;;20.24;44.92
62592;BME280;48659;41.622;2.276;2023-09-08T02:35:03;99971.99;;;20.64;43.60
62592;BME280;48659;41.622;2.276;2023-09-08T02:37:31;99971.92;;;19.53;45.32
62592;BME280;48659;41.622;2.276;2023-09-08T02:39:59;99974.73;;;20.25;44.55
62592;BME280;48659;41.622;2.276;2023-09-08T02:42:27;99977.42;;;20.83;43.65
62592;BME280;48659;41.622;2.276;2023-09-08T02:44:54;99977.79;;;20.90;43.56
62592;BME280;48659;41.622;2.276;2023-09-08T02:47:22;99980.38;;;20.88;43.64
62592;BME280;48659;41.622;2.276;2023-09-08T02:49:50;99983.39;;;20.51;44.16
62592;BME280;48659;41.622;2.276;2023-09-08T02:52:23;99985.07;;;20.26;44.30
62592;BME280;48659;41.622;2.276;2023-09-08T02:54:51;99984.47;;;20.75;43.33
62592;BME280;48659;41.622;2.276;2023-09-08T02:57:19;99988.81;;;20.80;43.69
62592;BME280;48659;41.622;2.276;2023-09-08T02:59:49;99987.31;;;20.46;44.01
62592;BME280;48659;41.622;2.276;2023-09-08T03:02:16;99990.45;;;19.17;46.30
62592;BME280;48659;41.622;2.276;2023-09-08T03:04:43;99985.51;;;20.21;44.94
62592;BME280;48659;41.622;2.276;2023-09-08T03:07:11;99992.15;;;19.06;46.87
62592;BME280;48659;41.622;2.276;2023-09-08T03:09:38;99986.17;;;20.55;44.95
62592;BME280;48659;41.622;2.276;2023-09-08T03:12:06;99994.46;;;18.01;49.01
62592;BME280;48659;41.622;2.276;2023-09-08T03:14:33;99997.21;;;18.73;47.57
62592;BME280;48659;41.622;2.276;2023-09-08T03:17:00;99993.24;;;19.49;46.30
62592;BME280;48659;41.622;2.276;2023-09-08T03:19:28;99993.46;;;19.19;46.16
62592;BME280;48659;41.622;2.276;2023-09-08T03:21:55;99992.31;;;17.72;49.52
62592;BME280;48659;41.622;2.276;2023-09-08T03:24:23;99993.79;;;18.20;49.07
62592;BME280;48659;41.622;2.276;2023-09-08T03:26:51;99991.13;;;17.89;48.96
62592;BME280;48659;41.622;2.276;2023-09-08T03:29:18;99995.13;;;17.53;50.67
62592;BME280;48659;41.622;2.276;2023-09-08T03:31:45;99992.01;;;17.68;50.40
62592;BME280;48659;41.622;2.276;2023-09-08T03:34:12;99995.78;;;19.10;46.97
62592;BME280;48659;41.622;2.276;2023-09-08T03:36:39;99993.55;;;19.18;46.87
62592;BME280;48659;41.622;2.276;2023-09-08T03:39:07;99994.43;;;19.50;45.88
62592;BME280;48659;41.622;2.276;2023-09-08T03:41:34;99994.56;;;19.75;45.35
62592;BME280;48659;41.622;2.276;2023-09-08T03:44:03;99991.17;;;20.14;43.73
62592;BME280;48659;41.622;2.276;2023-09-08T03:46:30;99992.87;;;20.53;43.10
62592;BME280;48659;41.622;2.276;2023-09-08T03:48:58;99991.68;;;20.70;42.50
62592;BME280;48659;41.622;2.276;2023-09-08T03:51:26;99998.50;;;18.62;46.23
62592;BME280;48659;41.622;2.276;2023-09-08T03:53:53;99995.31;;;18.12;47.84
62592;BME280;48659;41.622;2.276;2023-09-08T03:56:20;99998.77;;;17.69;48.41
62592;BME280;48659;41.622;2.276;2023-09-08T03:58:48;99997.50;;;18.45;47.25
62592;BME280;48659;41.622;2.276;2023-09-08T04:01:15;99997.91;;;17.85;47.56
62592;BME280;48659;41.622;2.276;2023-09-08T04:03:43;100000.17;;;17.56;48.97
62592;BME280;48659;41.622;2.276;2023-09-08T04:06:11;100002.53;;;18.92;46.67
62592;BME280;48659;41.622;2.276;2023-09-08T04:08:38;100002.34;;;19.22;45.36
62592;BME280;48659;41.622;2.276;2023-09-08T04:11:06;100002.76;;;17.48;48.37
62592;BME280;48659;41.622;2.276;2023-09-08T04:13:34;100004.20;;;17.43;49.35
62592;BME280;48659;41.622;2.276;2023-09-08T04:16:02;100004.72;;;18.89;46.03
62592;BME280;48659;41.622;2.276;2023-09-08T04:18:29;100004.55;;;18.89;45.96
62592;BME280;48659;41.622;2.276;2023-09-08T04:20:56;100005.71;;;19.82;44.34
62592;BME280;48659;41.622;2.276;2023-09-08T04:23:23;100008.62;;;19.43;45.33
62592;BME280;48659;41.622;2.276;2023-09-08T04:25:51;100004.86;;;19.82;44.34
62592;BME280;48659;41.622;2.276;2023-09-08T04:28:18;99997.90;;;20.08;43.89
62592;BME280;48659;41.622;2.276;2023-09-08T04:30:46;100001.27;;;19.62;44.20
62592;BME280;48659;41.622;2.276;2023-09-08T04:33:14;100006.35;;;18.58;46.27
62592;BME280;48659;41.622;2.276;2023-09-08T04:35:41;100011.90;;;16.44;51.12
62592;BME280;48659;41.622;2.276;2023-09-08T04:38:10;100006.97;;;17.95;48.71
62592;BME280;48659;41.622;2.276;2023-09-08T04:40:40;100004.81;;;17.85;48.64
62592;BME280;48659;41.622;2.276;2023-09-08T04:43:07;100003.52;;;17.65;49.24
62592;BME280;48659;41.622;2.276;2023-09-08T04:45:35;100008.66;;;16.38;52.82
62592;BME280;48659;41.622;2.276;2023-09-08T04:48:04;100008.08;;;16.67;52.08
62592;BME280;48659;41.622;2.276;2023-09-08T04:50:31;100009.59;;;16.83;50.93
62592;BME280;48659;41.622;2.276;2023-09-08T04:52:59;100006.55;;;18.02;48.86
62592;BME280;48659;41.622;2.276;2023-09-08T04:55:26;100002.77;;;19.11;45.86
62592;BME280;48659;41.622;2.276;2023-09-08T04:57:53;99997.82;;;19.61;44.07
62592;BME280;48659;41.622;2.276;2023-09-08T05:00:20;100004.80;;;19.44;44.25
62592;BME280;48659;41.622;2.276;2023-09-08T05:02:47;100006.94;;;17.82;48.23
62592;BME280;48659;41.622;2.276;2023-09-08T05:05:15;100013.78;;;17.39;49.47
62592;BME280;48659;41.622;2.276;2023-09-08T05:07:42;100021.28;;;16.79;50.62
62592;BME280;48659;41.622;2.276;2023-09-08T05:10:10;100015.13;;;17.65;50.79
62592;BME280;48659;41.622;2.276;2023-09-08T05:12:38;100016.59;;;16.08;52.93
62592;BME280;48659;41.622;2.276;2023-09-08T05:15:06;100014.79;;;16.95;50.66
62592;BME280;48659;41.622;2.276;2023-09-08T05:17:34;100017.85;;;16.80;52.14
62592;BME280;48659;41.622;2.276;2023-09-08T05:20:03;100023.81;;;16.61;53.38
62592;BME280;48659;41.622;2.276;2023-09-08T05:22:30;100027.98;;;16.14;54.09
62592;BME280;48659;41.622;2.276;2023-09-08T05:24:57;100029.44;;;17.50;50.46
62592;BME280;48659;41.622;2.276;2023-09-08T05:27:25;100026.15;;;16.97;50.82
62592;BME280;48659;41.622;2.276;2023-09-08T05:29:52;100027.75;;;16.84;52.03
62592;BME280;48659;41.622;2.276;2023-09-08T05:32:20;100031.29;;;16.19;53.23
62592;BME280;48659;41.622;2.276;2023-09-08T05:34:47;100035.45;;;15.54;55.06
62592;BME280;48659;41.622;2.276;2023-09-08T05:37:14;100038.53;;;16.15;54.91
62592;BME280;48659;41.622;2.276;2023-09-08T05:39:41;100032.94;;;16.51;53.78
62592;BME280;48659;41.622;2.276;2023-09-08T05:42:09;100032.42;;;17.61;50.84
62592;BME280;48659;41.622;2.276;2023-09-08T05:44:36;100039.75;;;16.16;54.17
62592;BME280;48659;41.622;2.276;2023-09-08T05:47:03;100035.23;;;16.70;52.44
62592;BME280;48659;41.622;2.276;2023-09-08T05:49:31;100037.09;;;16.21;53.61
62592;BME280;48659;41.622;2.276;2023-09-08T05:51:57;100041.24;;;16.35;54.37
62592;BME280;48659;41.622;2.276;2023-09-08T05:54:24;100035.52;;;16.67;52.76
62592;BME280;48659;41.622;2.276;2023-09-08T05:56:52;100033.25;;;16.38;54.30
62592;BME280;48659;41.622;2.276;2023-09-08T05:59:19;100034.57;;;16.40;54.09
62592;BME280;48659;41.622;2.276;2023-09-08T06:01:47;100037.80;;;16.56;53.24
62592;BME280;48659;41.622;2.276;2023-09-08T06:04:14;100038.77;;;16.26;54.34
62592;BME280;48659;41.622;2.276;2023-09-08T06:06:42;100036.93;;;16.61;54.05
62592;BME280;48659;41.622;2.276;2023-09-08T06:09:09;100032.49;;;16.58;53.58
62592;BME280;48659;41.622;2.276;2023-09-08T06:11:36;100032.91;;;16.92;52.29
62592;BME280;48659;41.622;2.276;2023-09-08T06:14:03;100032.46;;;17.61;51.32
62592;BME280;48659;41.622;2.276;2023-09-08T06:16:31;100029.32;;;17.60;51.27
62592;BME280;48659;41.622;2.276;2023-09-08T06:18:58;100035.49;;;17.34;50.67
62592;BME280;48659;41.622;2.276;2023-09-08T06:21:25;100040.40;;;17.28;50.98
62592;BME280;48659;41.622;2.276;2023-09-08T06:23:53;100039.08;;;17.82;49.09
62592;BME280;48659;41.622;2.276;2023-09-08T06:26:20;100040.21;;;17.85;49.47
62592;BME280;48659;41.622;2.276;2023-09-08T06:28:47;100041.76;;;17.41;50.86
62592;BME280;48659;41.622;2.276;2023-09-08T06:31:15;100042.01;;;17.18;51.58
62592;BME280;48659;41.622;2.276;2023-09-08T06:33:42;100037.66;;;17.38;51.42
62592;BME280;48659;41.622;2.276;2023-09-08T06:36:10;100038.28;;;17.72;50.34
62592;BME280;48659;41.622;2.276;2023-09-08T06:38:37;100040.07;;;17.62;50.83
62592;BME280;48659;41.622;2.276;2023-09-08T06:41:09;100039.88;;;18.09;49.46
62592;BME280;48659;41.622;2.276;2023-09-08T06:43:37;100043.49;;;18.57;48.39
62592;BME280;48659;41.622;2.276;2023-09-08T06:46:11;100045.56;;;18.63;47.79
62592;BME280;48659;41.622;2.276;2023-09-08T06:48:39;100042.56;;;18.08;49.23
62592;BME280;48659;41.622;2.276;2023-09-08T06:51:06;100045.95;;;17.40;50.52
62592;BME280;48659;41.622;2.276;2023-09-08T06:53:33;100047.09;;;17.63;50.48
62592;BME280;48659;41.622;2.276;2023-09-08T06:56:01;100049.10;;;17.97;50.74
62592;BME280;48659;41.622;2.276;2023-09-08T06:58:28;100056.82;;;17.55;50.85
62592;BME280;48659;41.622;2.276;2023-09-08T07:00:55;100060.57;;;17.59;51.56
62592;BME280;48659;41.622;2.276;2023-09-08T07:03:22;100059.73;;;17.44;51.00
62592;BME280;48659;41.622;2.276;2023-09-08T07:05:50;100049.85;;;18.89;47.82
62592;BME280;48659;41.622;2.276;2023-09-08T07:08:17;100051.61;;;18.46;47.86
62592;BME280;48659;41.622;2.276;2023-09-08T07:10:45;100052.85;;;18.72;47.01
62592;BME280;48659;41.622;2.276;2023-09-08T07:13:12;100054.88;;;18.92;45.79
62592;BME280;48659;41.622;2.276;2023-09-08T07:15:40;100057.30;;;19.68;44.57
62592;BME280;48659;41.622;2.276;2023-09-08T07:18:12;100055.11;;;20.89;42.67
62592;BME280;48659;41.622;2.276;2023-09-08T07:20:39;100058.58;;;20.05;43.31
62592;BME280;48659;41.622;2.276;2023-09-08T07:23:06;100061.24;;;20.28;42.95
62592;BME280;48659;41.622;2.276;2023-09-08T07:25:34;100059.16;;;21.61;39.98
62592;BME280;48659;41.622;2.276;2023-09-08T07:28:01;100062.15;;;20.84;41.42
62592;BME280;48659;41.622;2.276;2023-09-08T07:30:31;100066.02;;;20.18;43.13
62592;BME280;48659;41.622;2.276;2023-09-08T07:32:59;100061.35;;;20.07;43.17
62592;BME280;48659;41.622;2.276;2023-09-08T07:35:26;100061.43;;;20.44;42.77
62592;BME280;48659;41.622;2.276;2023-09-08T07:37:53;100067.24;;;20.38;43.09
62592;BME280;48659;41.622;2.276;2023-09-08T07:40:21;100064.42;;;20.95;41.77
62592;BME280;48659;41.622;2.276;2023-09-08T07:42:48;100062.46;;;21.23;41.31
62592;BME280;48659;41.622;2.276;2023-09-08T07:45:16;100062.93;;;21.29;40.15
62592;BME280;48659;41.622;2.276;2023-09-08T07:47:43;100067.26;;;21.27;40.79
62592;BME280;48659;41.622;2.276;2023-09-08T07:50:20;100071.33;;;21.10;41.86
62592;BME280;48659;41.622;2.276;2023-09-08T07:52:49;100071.42;;;21.47;40.87
62592;BME280;48659;41.622;2.276;2023-09-08T07:55:17;100067.59;;;21.83;39.13
62592;BME280;48659;41.622;2.276;2023-09-08T07:57:46;100067.56;;;21.31;39.99
62592;BME280;48659;41.622;2.276;2023-09-08T08:00:14;100065.16;;;21.45;40.25
62592;BME280;48659;41.622;2.276;2023-09-08T08:02:44;100060.05;;;22.40;38.12
62592;BME280;48659;41.622;2.276;2023-09-08T08:05:12;100057.28;;;22.12;37.18
62592;BME280;48659;41.622;2.276;2023-09-08T08:07:41;100057.78;;;21.97;37.46
62592;BME280;48659;41.622;2.276;2023-09-08T08:10:10;100054.66;;;22.53;36.24
62592;BME280;48659;41.622;2.276;2023-09-08T08:12:39;100048.30;;;23.00;35.19
62592;BME280;48659;41.622;2.276;2023-09-08T08:15:07;100049.84;;;22.69;35.38
62592;BME280;48659;41.622;2.276;2023-09-08T08:17:35;100050.23;;;22.35;35.43
62592;BME280;48659;41.622;2.276;2023-09-08T08:20:04;100046.57;;;22.99;34.70
62592;BME280;48659;41.622;2.276;2023-09-08T08:22:33;100046.35;;;22.87;34.45
62592;BME280;48659;41.622;2.276;2023-09-08T08:25:00;100047.57;;;22.67;35.14
62592;BME280;48659;41.622;2.276;2023-09-08T08:27:29;100042.79;;;22.91;34.92
62592;BME280;48659;41.622;2.276;2023-09-08T08:29:56;100045.58;;;23.49;34.23
62592;BME280;48659;41.622;2.276;2023-09-08T08:32:24;100048.41;;;23.88;33.61
62592;BME280;48659;41.622;2.276;2023-09-08T08:34:52;100052.00;;;23.74;34.09
62592;BME280;48659;41.622;2.276;2023-09-08T08:37:19;100043.67;;;25.39;31.34
62592;BME280;48659;41.622;2.276;2023-09-08T08:39:47;100044.00;;;25.39;30.86
62592;BME280;48659;41.622;2.276;2023-09-08T08:42:14;100042.59;;;24.37;31.69
62592;BME280;48659;41.622;2.276;2023-09-08T08:44:42;100047.86;;;24.02;33.13
62592;BME280;48659;41.622;2.276;2023-09-08T08:47:10;100042.23;;;25.26;31.54
62592;BME280;48659;41.622;2.276;2023-09-08T08:49:39;100048.77;;;23.98;33.23
62592;BME280;48659;41.622;2.276;2023-09-08T08:52:08;100045.26;;;23.28;33.83
62592;BME280;48659;41.622;2.276;2023-09-08T08:54:38;100044.61;;;23.99;33.47
62592;BME280;48659;41.622;2.276;2023-09-08T08:57:07;100042.44;;;22.61;35.16
62592;BME280;48659;41.622;2.276;2023-09-08T08:59:35;100041.86;;;23.19;34.98
62592;BME280;48659;41.622;2.276;2023-09-08T09:02:04;100044.36;;;23.90;33.47
62592;BME280;48659;41.622;2.276;2023-09-08T09:04:33;100041.45;;;23.21;34.47
62592;BME280;48659;41.622;2.276;2023-09-08T09:07:03;100045.32;;;24.26;33.82
62592;BME280;48659;41.622;2.276;2023-09-08T09:09:30;100043.16;;;23.39;34.61
62592;BME280;48659;41.622;2.276;2023-09-08T09:11:57;100042.32;;;23.69;34.90
62592;BME280;48659;41.622;2.276;2023-09-08T09:14:25;100044.83;;;24.21;32.95
62592;BME280;48659;41.622;2.276;2023-09-08T09:16:56;100043.19;;;23.88;33.92
62592;BME280;48659;41.622;2.276;2023-09-08T09:19:24;100045.05;;;23.76;33.18
62592;BME280;48659;41.622;2.276;2023-09-08T09:21:52;100039.30;;;23.20;34.28
62592;BME280;48659;41.622;2.276;2023-09-08T09:24:30;100041.27;;;24.25;32.62
62592;BME280;48659;41.622;2.276;2023-09-08T09:26:58;100034.97;;;23.55;33.23
62592;BME280;48659;41.622;2.276;2023-09-08T09:29:25;100036.02;;;23.76;33.48
62592;BME280;48659;41.622;2.276;2023-09-08T09:31:54;100031.01;;;24.80;31.67
62592;BME280;48659;41.622;2.276;2023-09-08T09:34:22;100032.92;;;23.97;33.03
62592;BME280;48659;41.622;2.276;2023-09-08T09:36:49;100027.77;;;25.42;30.74
62592;BME280;48659;41.622;2.276;2023-09-08T09:39:18;100021.78;;;24.97;31.24
62592;BME280;48659;41.622;2.276;2023-09-08T09:41:45;100029.32;;;24.53;32.01
62592;BME280;48659;41.622;2.276;2023-09-08T09:44:13;100030.37;;;24.71;31.48
62592;BME280;48659;41.622;2.276;2023-09-08T09:46:43;100029.05;;;24.71;31.72
62592;BME280;48659;41.622;2.276;2023-09-08T09:49:12;100023.41;;;25.64;30.51
62592;BME280;48659;41.622;2.276;2023-09-08T09:51:42;100025.65;;;25.24;31.39
62592;BME280;48659;41.622;2.276;2023-09-08T09:54:09;100024.84;;;25.50;30.45
62592;BME280;48659;41.622;2.276;2023-09-08T09:56:38;100017.85;;;25.79;29.88
62592;BME280;48659;41.622;2.276;2023-09-08T09:59:08;100015.35;;;25.66;30.38
62592;BME280;48659;41.622;2.276;2023-09-08T10:01:37;100014.81;;;25.71;29.97
62592;BME280;48659;41.622;2.276;2023-09-08T10:04:11;100018.76;;;25.90;30.08
62592;BME280;48659;41.622;2.276;2023-09-08T10:06:39;100012.76;;;26.01;29.51
62592;BME280;48659;41.622;2.276;2023-09-08T10:09:06;100011.44;;;25.33;30.53
62592;BME280;48659;41.622;2.276;2023-09-08T10:11:42;100007.97;;;25.13;30.82
62592;BME280;48659;41.622;2.276;2023-09-08T10:14:12;100004.09;;;26.26;29.04
62592;BME280;48659;41.622;2.276;2023-09-08T10:16:44;100010.13;;;25.04;30.38
62592;BME280;48659;41.622;2.276;2023-09-08T10:19:11;100009.30;;;25.14;30.43
62592;BME280;48659;41.622;2.276;2023-09-08T10:21:41;100009.41;;;26.13;29.09
62592;BME280;48659;41.622;2.276;2023-09-08T10:24:14;100005.86;;;26.18;28.90
62592;BME280;48659;41.622;2.276;2023-09-08T10:26:44;100002.67;;;25.32;29.77
62592;BME280;48659;41.622;2.276;2023-09-08T10:29:14;99999.24;;;25.52;29.93
62592;BME280;48659;41.622;2.276;2023-09-08T10:31:44;100003.61;;;25.67;29.58
62592;BME280;48659;41.622;2.276;2023-09-08T10:34:11;99995.94;;;25.79;30.01
62592;BME280;48659;41.622;2.276;2023-09-08T10:36:39;99993.45;;;25.76;29.74
62592;BME280;48659;41.622;2.276;2023-09-08T10:39:38;99984.84;;;27.03;28.20
62592;BME280;48659;41.622;2.276;2023-09-08T10:42:23;99985.67;;;26.41;28.73
62592;BME280;48659;41.622;2.276;2023-09-08T10:45:00;99991.14;;;25.74;28.52
62592;BME280;48659;41.622;2.276;2023-09-08T10:47:32;99987.66;;;27.75;26.78
62592;BME280;48659;41.622;2.276;2023-09-08T10:50:00;99987.44;;;28.35;26.30
62592;BME280;48659;41.622;2.276;2023-09-08T10:52:27;99981.99;;;27.15;27.13
62592;BME280;48659;41.622;2.276;2023-09-08T10:54:55;99976.96;;;26.70;27.49
62592;BME280;48659;41.622;2.276;2023-09-08T10:57:25;99983.89;;;25.93;28.84
62592;BME280;48659;41.622;2.276;2023-09-08T10:59:53;99985.88;;;25.95;29.21
62592;BME280;48659;41.622;2.276;2023-09-08T11:02:38;99978.82;;;26.76;28.17
62592;BME280;48659;41.622;2.276;2023-09-08T11:05:08;99973.27;;;27.11;26.64
62592;BME280;48659;41.622;2.276;2023-09-08T11:07:36;99967.04;;;26.96;27.17
62592;BME280;48659;41.622;2.276;2023-09-08T11:10:04;99967.32;;;26.69;28.07
62592;BME280;48659;41.622;2.276;2023-09-08T11:12:32;99965.29;;;26.95;27.94
62592;BME280;48659;41.622;2.276;2023-09-08T11:14:59;99963.43;;;27.29;31.43
62592;BME280;48659;41.622;2.276;2023-09-08T11:17:28;99965.03;;;26.73;33.43
62592;BME280;48659;41.622;2.276;2023-09-08T11:19:56;99967.24;;;27.41;32.28
62592;BME280;48659;41.622;2.276;2023-09-08T11:22:24;99963.15;;;28.06;31.36
62592;BME280;48659;41.622;2.276;2023-09-08T11:24:53;99956.60;;;29.79;29.52
62592;BME280;48659;41.622;2.276;2023-09-08T11:27:21;99956.81;;;28.91;29.21
62592;BME280;48659;41.622;2.276;2023-09-08T11:29:48;99961.58;;;28.43;30.08
62592;BME280;48659;41.622;2.276;2023-09-08T11:32:17;99960.73;;;27.97;31.95
62592;BME280;48659;41.622;2.276;2023-09-08T11:34:45;99958.13;;;26.50;34.38
62592;BME280;48659;41.622;2.276;2023-09-08T11:37:13;99962.05;;;26.63;34.43
62592;BME280;48659;41.622;2.276;2023-09-08T11:39:41;99963.07;;;28.19;32.34
62592;BME280;48659;41.622;2.276;2023-09-08T11:42:11;99948.25;;;29.09;30.84
62592;BME280;48659;41.622;2.276;2023-09-08T11:44:40;99961.06;;;27.93;32.74
62592;BME280;48659;41.622;2.276;2023-09-08T11:47:08;99959.82;;;28.03;31.87
62592;BME280;48659;41.622;2.276;2023-09-08T11:49:36;99952.01;;;28.33;31.21
62592;BME280;48659;41.622;2.276;2023-09-08T11:52:04;99956.96;;;27.77;32.29
62592;BME280;48659;41.622;2.276;2023-09-08T11:54:34;99947.65;;;26.98;33.61
62592;BME280;48659;41.622;2.276;2023-09-08T11:57:04;99953.60;;;27.54;33.33
62592;BME280;48659;41.622;2.276;2023-09-08T11:59:34;99950.06;;;28.66;32.00
62592;BME280;48659;41.622;2.276;2023-09-08T12:02:02;99942.95;;;28.59;31.84
62592;BME280;48659;41.622;2.276;2023-09-08T12:04:29;99936.41;;;28.25;31.94
62592;BME280;48659;41.622;2.276;2023-09-08T12:06:57;99938.35;;;27.07;33.97
62592;BME280;48659;41.622;2.276;2023-09-08T12:09:25;99937.45;;;27.54;33.07
62592;BME280;48659;41.622;2.276;2023-09-08T12:11:52;99932.16;;;27.80;32.29
62592;BME280;48659;41.622;2.276;2023-09-08T12:14:20;99930.49;;;27.56;31.47
62592;BME280;48659;41.622;2.276;2023-09-08T12:16:47;99926.45;;;26.58;32.56
62592;BME280;48659;41.622;2.276;2023-09-08T12:19:31;99923.28;;;26.49;32.77
62592;BME280;48659;41.622;2.276;2023-09-08T12:22:01;99920.61;;;26.31;33.41
62592;BME280;48659;41.622;2.276;2023-09-08T12:25:00;99920.57;;;26.04;33.97
62592;BME280;48659;41.622;2.276;2023-09-08T12:27:27;99920.22;;;26.24;34.22
62592;BME280;48659;41.622;2.276;2023-09-08T12:29:56;99914.71;;;26.48;33.81
62592;BME280;48659;41.622;2.276;2023-09-08T12:32:25;99918.36;;;26.10;33.68
62592;BME280;48659;41.622;2.276;2023-09-08T12:34:52;99912.34;;;25.94;33.86
62592;BME280;48659;41.622;2.276;2023-09-08T12:37:21;99919.25;;;26.12;35.02
62592;BME280;48659;41.622;2.276;2023-09-08T12:39:49;99918.78;;;26.44;34.46
62592;BME280;48659;41.622;2.276;2023-09-08T12:42:18;99917.02;;;26.53;34.59
62592;BME280;48659;41.622;2.276;2023-09-08T12:44:45;99917.84;;;26.13;35.23
62592;BME280;48659;41.622;2.276;2023-09-08T12:47:13;99911.99;;;26.52;34.46
62592;BME280;48659;41.622;2.276;2023-09-08T12:49:40;99912.49;;;26.25;34.62
62592;BME280;48659;41.622;2.276;2023-09-08T12:52:08;99909.94;;;26.52;34.23
62592;BME280;48659;41.622;2.276;2023-09-08T12:54:36;99909.97;;;26.19;35.13
62592;BME280;48659;41.622;2.276;2023-09-08T12:57:11;99909.29;;;26.41;34.48
62592;BME280;48659;41.622;2.276;2023-09-08T12:59:38;99902.07;;;26.09;35.81
62592;BME280;48659;41.622;2.276;2023-09-08T13:02:06;99895.78;;;26.30;34.97